Südanflug-Wetter

Südanflüge sind sowohl am Euroairport Basel-Mulhouse-Freiburg als auch am Flughafen Unique Zürich ein Thema für die Anwohner. In Basel hängen Südanflüge von den Windverhältnissen ab. Für den Euroairport Basel-Mulhouse-Freiburg bereitet MeteoNews deshalb aktuelle Winddaten auf, die direkt auf der Homepage des Flughafens eingebunden werden. Angaben zum Flughafen Zürich finden Sie hier.

In Zürich sind Südanflüge auf die Piste 34 möglich, wenn die horizontale Sichtweite mindestens 750 m beträgt und die Wolkenuntergrenze im Anflugsektor nicht tiefer als 300 Fuss (knapp 100 m) liegt (diese Werte gelten seit dem 1. November 2004).

Prognose für Südanflüge

Am Mittwoch sind Südanflüge infolge starkem Wind höchstens eingeschränkt möglich.
(Prognose ohne Gewähr. Die Vorhersage wird mehrmals täglich aktualisiert. Verantwortlicher Meteorologe: Roger Perret, 28.02.2017 10:39)

Analyse der letzten METAR-Messungen

Unser Tool wertet die letzten 20 offiziellen Wettermeldungen (METAR) des Flughafens Zürich aus und entscheidet aufgrund der beiden Werte für Sichtweite und Ceiling (Hauptwolkenuntergrenze), ob Südanflüge nach obiger Definition möglich wären. Allerdings repräsentiert der Wert für die Wolkenuntergrenze in der METAR-Meldung nicht die Bewölkung im Anflugsektor sondern generell um den Flughafen. Da über die Bewölkung im Anflugsektor kurzfristig aufgrund von Beobachtungen des Towers und von Piloten entschieden wird, kann die Angabe unseres Tools in gewissen Fällen von den realen Entscheiden der Flugsicherung abweichen.

Südanflüge Datum Uhrzeit Sichtweite Ceiling Vollständige METAR-Meldung
möglich 2017-02-28 12:50:00 > 10 km 3660 m LSZH 281150Z VRB03KT 9999 FEW008 SCT013 BKN120 04/02 Q0997 NOSIG
möglich 2017-02-28 12:20:00 > 10 km 3660 m LSZH 281120Z 11005KT 9999 FEW008 SCT095 BKN120 03/02 Q0998 NOSIG
möglich 2017-02-28 11:50:00 > 10 km 3960 m LSZH 281050Z 12005KT 080V160 9999 FEW008 SCT095 BKN130 03/02 Q0998 NOSIG
möglich 2017-02-28 11:20:00 > 10 km 2900 m LSZH 281020Z 13005KT 9999 FEW008 SCT065 BKN095 02/01 Q1000 NOSIG
möglich 2017-02-28 10:50:00 > 10 km 3660 m LSZH 280950Z 10005KT 9999 FEW007 SCT018 BKN120 02/01 Q1000 NOSIG
möglich 2017-02-28 10:20:00 > 10 km 1070 m LSZH 280920Z 09003KT 020V130 9999 -DZ FEW006 SCT016 BKN035 02/01 Q1001 NOSIG
möglich 2017-02-28 09:50:00 > 10 km 1280 m LSZH 280850Z 16008KT 9999 FEW006 SCT017 BKN042 02/01 Q1002 NOSIG
möglich 2017-02-28 09:20:00 > 10 km 490 m LSZH 280820Z 15009KT 9999 -RA FEW005 SCT009 BKN016 01/01 Q1002 NOSIG
möglich 2017-02-28 08:50:00 8000 m 490 m LSZH 280750Z 14005KT 8000 -RA FEW005 SCT009 BKN016 01/01 Q1002 NOSIG
möglich 2017-02-28 08:20:00 5000 m 490 m LSZH 280720Z 16005KT 5000 -RA FEW005 BKN016 01/00 Q1003 R88/D NOSIG
möglich 2017-02-28 07:50:00 5000 m 490 m LSZH 280650Z 15006KT 5000 R14/1100D R16/P2000N R28/P2000N R34/P2000N -RA FEW005 BKN016 01/00 Q1003 R88/29//// NOSIG
möglich 2017-02-28 07:20:00 5000 m 120 m LSZH 280620Z 13006KT 5000 R14/1100D R16/P2000N R28/P2000N R34/P2000N -SNRA FEW003 OVC004 00/00 Q1003 R88/6902// NOSIG
möglich 2017-02-28 06:50:00 4500 m 120 m LSZH 280550Z 12005KT 4500 -SN OVC004 00/00 Q1003 R88/6902 BECMG 5000
möglich 2017-02-28 06:20:00 3200 m 150 m LSZH 280520Z 12005KT 3200 -SN VV005 00/M00 Q1004 R88/6902 TEMPO 1200 SN
möglich 2017-02-28 05:50:00 1600 m 240 m LSZH 280450Z 12004KT 1600 SN FEW003 SCT006 BKN008 00/M00 Q1003 R88/6902 TEMPO 1200 VV006
möglich 2017-02-28 05:20:00 2200 m 270 m LSZH 280420Z 13005KT 2200 SN FEW003 SCT006 BKN009 00/M00 Q1003 R88/29 TEMPO 1200 VV006
möglich 2017-02-28 04:50:00 3500 m 370 m LSZH 280350Z 35003KT 310V030 3500 RASN SCT007 BKN012 00/M00 Q1002 TEMPO 2500 SN BKN008
möglich 2017-02-28 04:20:00 6000 m 550 m LSZH 280320Z 29014KT 6000 RA SCT011 BKN018 02/01 Q1002 TEMPO 4500 BKN014
möglich 2017-02-28 03:50:00 8000 m 1070 m LSZH 280250Z 28012KT 8000 RA FEW012 SCT016 BKN035 04/02 Q1001 NOSIG
möglich 2017-02-28 03:20:00 > 10 km 1220 m LSZH 280220Z 28016KT 9999 -RA FEW015 SCT030 BKN040 06/03 Q1000 BECMG RA